AirNav   Everest Fuels
 
 1665 users online  

KHAF Half Moon Bay Airport
Half Moon Bay, California, USA

GOING TO HALF MOON BAY?


FAA INFORMATION EFFECTIVE 10 SEPTEMBER 2020

Location

FAA Identifier: HAF
Lat/Long: 37-30-48.4000N 122-30-04.2000W
37-30.806667N 122-30.070000W
37.5134444,-122.5011667
(estimated)
Elevation: 66.3 ft. / 20.2 m (surveyed)
Variation: 15E (1995)
From city: 5 miles NW of HALF MOON BAY, CA
Time zone: UTC -7 (UTC -8 during Standard Time)
Zip code: 94038

Airport Operations

Airport use: Open to the public
Activation date: 03/1943
Control tower: no
ARTCC: OAKLAND CENTER
FSS: OAKLAND FLIGHT SERVICE STATION
NOTAMs facility: OAK (NOTAM-D service available)
Attendance: 0830-1630
Pattern altitude: 999.3 ft. MSL
Wind indicator: lighted
Segmented circle: yes
Lights: ACTVT MIRL RY 12/30, REIL RY 30, PAPI RYS 12 AND 30 - 122.8.
Beacon: white-green (lighted land airport)
Operates sunset to sunrise.

Airport Communications

CTAF/UNICOM: 122.8
WX AWOS-3: 127.275 (650-728-5649)
NORCAL APPROACH: 135.1
NORCAL DEPARTURE: 135.1
WX ASOS at SFO (9 nm NE): PHONE 650-827-8593
WX AWOS-3P at SQL (12 nm E): 125.9 (650-593-0613)
WX AWOS-AV at 18CN (16 nm N): 119.925 (415-514-4209)
WX ASOS at OAK (18 nm NE): PHONE 510-214-1776

Nearby radio navigation aids

VOR radial/distance  VOR name  Freq  Var
SFOr207/8.8SAN FRANCISCO VOR/DME115.8017E
OSIr288/12.7WOODSIDE VOR/DME113.9017E
OAKr209/18.3OAKLAND VOR/DME116.8017E
SAUr160/20.5SAUSALITO VOR/DME116.2017E
SJCr271/27.8SAN JOSE VOR/DME114.1016E
PYEr136/38.2POINT REYES VOR/DME113.7017E
CCRr197/38.5CONCORD VOR/DME117.0017E

Airport Services

Fuel available: 100LL
FUEL AVBL 24 HRS SELF SERVICE.
Parking: tiedowns
Airframe service: MINOR
Powerplant service: MINOR
Bottled oxygen: NONE
Bulk oxygen: NONE

Runway Information

Runway 12/30

Dimensions: 5000 x 150 ft. / 1524 x 46 m
Surface: asphalt/concrete, in fair condition
Weight bearing capacity: 
Single wheel: 30.0
Double wheel: 200.0
Double tandem: 360.0
Runway edge lights: medium intensity
RUNWAY 12  RUNWAY 30
Latitude: 37-31.107027N37-30.505213N
Longitude: 122-30.422895W122-29.716655W
Elevation: 66.3 ft.32.5 ft.
Traffic pattern: leftright
Runway heading: 122 magnetic, 137 true302 magnetic, 317 true
Displaced threshold: 752 ft.762 ft.
Markings: nonprecision, in good conditionnonprecision, in good condition
Visual slope indicator: 2-light PAPI on left (3.00 degrees glide path)2-light PAPI on left (3.00 degrees glide path)
Runway end identifier lights: noyes
Touchdown point: yes, no lightsyes, no lights
Obstructions: 70 ft. trees, 1390 ft. from runway, 270 ft. right of centerline, 17:1 slope to clear
APCH RATIO TO DSPLCD THR 50:1.
70 ft. trees, 2478 ft. from runway, 180 ft. right of centerline, 32:1 slope to clear
APCH RATIO TO DSPLCD THR 50:1.

Airport Ownership and Management from official FAA records

Ownership: Publicly-owned
Owner: SAN MATEO COUNTY
555 COUNTY CENTER, 5TH FLOOR
REDWOOD CITY, CA 94063-1665
Phone 650-573-3700
DIRECTOR OF PUBLIC WORKS: JAMES C. PORTER
Manager: GRETCHEN KELLY
620 AIRPORT DRIVE
SAN CARLOS, CA 94070
Phone 650-573-3700
MANAGERS OFFICE AIRPORT PHONE 650-573-3701.

Airport Operational Statistics

Aircraft based on the field: 13
Single engine airplanes: 12
Multi engine airplanes: 1
    
Aircraft operations: avg 137/day *
50% transient general aviation
50% local general aviation
<1% air taxi
* for 12-month period ending 15 January 2020

Additional Remarks

FLD CONDS-RWY, TWY & APRON GOOD.
AVOID FLYING DIRECTLY OVER THE PILLAR POINT AIR FORCE STATION.
ARPT NOISE SENSITIVE AREAS NW THRU NE.
TWYS, APRONS AND TIEDOWNS: 12,500 LBS MAXIMUM.
FOR CD CTC NORCAL APCH AT 916-361-0519.
UNEXPECTED TURBULENT CONDS MAY BE ENCTRD WHILE ON FNA TO RWY 12.

Instrument Procedures

NOTE: All procedures below are presented as PDF files. If you need a reader for these files, you should download the free Adobe Reader.

NOT FOR NAVIGATION. Please procure official charts for flight.
FAA instrument procedures published for use from 10 September 2020 at 0901Z to 08 October 2020 at 0900z.

 
IAPs - Instrument Approach Procedures
RNAV (GPS) RWY 12   download (180KB)
RNAV (GPS) RWY 30   download (184KB)
NOTE: Special Take-Off Minimums/Departure Procedures apply   download (188KB)

Other nearby airports with instrument procedures:

KSFO - San Francisco International Airport (9 nm NE)
KSQL - San Carlos Airport (12 nm E)
KOAK - Metropolitan Oakland International Airport (18 nm NE)
KPAO - Palo Alto Airport (19 nm E)
KHWD - Hayward Executive Airport (20 nm NE)
 
Loc | Ops | Rwys | IFR | FBO | Links
Com | Nav | Svcs | Stats | Notes
Area around KHAF (Half Moon Bay Airport)
 
Road maps at: MapQuest Bing Google
 
Aerial photo
WARNING: Photo may not be current or correct
Aerial photo of KHAF (Half Moon Bay Airport)
Photo by David Newcomer
from 2,500' looking south.

Do you have a better or more recent aerial photo of Half Moon Bay Airport that you would like to share? If so, please send us your photo.

 
Sectional chart

 
Airport distance calculator
Flying to Half Moon Bay Airport? Find the distance to fly.

From to KHAF

Sunrise and sunset
Times for 28-Sep-2020
 Local
(UTC-7)
 Zulu
(UTC)
Morning civil twilight06:3913:39
Sunrise07:0514:05
Sunset18:5601:56
Evening civil twilight19:2202:22

Current date and time
Zulu (UTC)  28-Sep-2020 19:14:20
Local (UTC-7)  28-Sep-2020 12:14:20
 
METAR
KHAF 281855Z AUTO 15007KT 9SM CLR 16/13 A2996 RMK AO2
KSFO 
9nm NE 
281856Z 12006KT 10SM CLR 33/02 A2992 RMK AO2 SLP132 T03330022
KSQL 
12nm E 
281747Z 10005KT 10SM SKC 30/05 A2995
KOAK 
18nm NE 
281853Z VRB03KT 10SM FEW200 32/07 A2993 RMK AO2 SLP134 T03220067
KPAO 
19nm E 
272247Z 34009KT 10SM SKC 33/09 A2982
TAF
KSFO 
9nm NE 
281738Z 2818/2924 15007KT P6SM FEW200 FM282100 31014KT P6SM FEW200 FM290300 30009KT 6SM FU HZ SKC FM290700 29005KT 6SM FU HZ SKC FM291200 VRB04KT 6SM FU HZ SKC FM292100 31012KT 6SM FU HZ FEW250
KOAK 
18nm NE 
281738Z 2818/2924 18006KT P6SM FEW080 FEW200 FM282100 30011KT P6SM FEW080 FEW200 FM290300 32007KT 6SM FU HZ SKC FM290700 VRB03KT 6SM FU HZ SKC FM291700 27006KT 6SM FU HZ SKC FM292100 30011KT 6SM FU HZ SKC
NOTAMs
Click for the latest NOTAMs
NOTAMs are issued by the DoD/FAA and will open in a separate window not controlled by AirNav.

 

 
 

Where to Eat: Catering, Restaurants, Food shops

  
 Business Name 
 
 Contact 
 
 Services / Description 
 
Distance
 
Comments
  
Three-Zero Cafe 650-728-1411
no information available

If you are affiliated with Three-Zero Cafe and would like to show here your services, contact info, web link, logo, and more, click here
on airport  
   1 read write
 

Would you like to see your business listed on this page?

 If your business provides an interesting product or service to pilots, flight crews, aircraft, or users of the Half Moon Bay Airport, you should consider listing it here.  To start the listing process, click on the button below
 
Add a business
 

Other Pages about Half Moon Bay Airport

publicworks.smcgov.org/half-moon-bay-airport-0
AWOS display
 
Update a link
 
Copyright © AirNav, LLC. All rights reserved. Privacy Policy  Contact